sensor_id;sensor_type;location;lat;lon;timestamp;pressure;altitude;pressure_sealevel;temperature;humidity
20909;BME280;10614;53.198;6.570;2023-03-26T00:50:29;100590.19;;;6.91;100.00
20909;BME280;10614;53.198;6.570;2023-03-26T00:52:35;100595.56;;;6.87;100.00
20909;BME280;10614;53.198;6.570;2023-03-26T00:54:38;100601.63;;;6.87;100.00
20909;BME280;10614;53.198;6.570;2023-03-26T00:56:40;100604.28;;;6.86;100.00
20909;BME280;10614;53.198;6.570;2023-03-26T00:58:44;100599.06;;;6.86;100.00
20909;BME280;10614;53.198;6.570;2023-03-26T01:00:54;100586.16;;;6.80;100.00
20909;BME280;10614;53.198;6.570;2023-03-26T01:02:59;100600.91;;;6.82;100.00
20909;BME280;10614;53.198;6.570;2023-03-26T02:57:26;100539.47;;;6.34;100.00
20909;BME280;10614;53.198;6.570;2023-03-26T02:59:34;100536.81;;;6.36;100.00
20909;BME280;10614;53.198;6.570;2023-03-26T03:01:45;100539.34;;;6.39;100.00
20909;BME280;10614;53.198;6.570;2023-03-26T03:04:18;100536.78;;;6.38;100.00
20909;BME280;10614;53.198;6.570;2023-03-26T03:06:33;100537.63;;;6.38;100.00
20909;BME280;10614;53.198;6.570;2023-03-26T03:08:53;100534.13;;;6.39;100.00
20909;BME280;10614;53.198;6.570;2023-03-26T03:11:08;100533.22;;;6.40;100.00
20909;BME280;10614;53.198;6.570;2023-03-26T03:13:17;100527.06;;;6.41;100.00
20909;BME280;10614;53.198;6.570;2023-03-26T03:15:22;100524.47;;;6.41;100.00
20909;BME280;10614;53.198;6.570;2023-03-26T03:17:26;100522.75;;;6.40;100.00
20909;BME280;10614;53.198;6.570;2023-03-26T03:19:32;100513.38;;;6.33;100.00
20909;BME280;10614;53.198;6.570;2023-03-26T03:21:38;100523.66;;;6.39;100.00
20909;BME280;10614;53.198;6.570;2023-03-26T03:23:42;100511.63;;;6.32;100.00
20909;BME280;10614;53.198;6.570;2023-03-26T03:25:49;100513.53;;;6.27;100.00
20909;BME280;10614;53.198;6.570;2023-03-26T03:27:56;100532.44;;;6.37;100.00
20909;BME280;10614;53.198;6.570;2023-03-26T03:30:02;100521.09;;;6.38;100.00
20909;BME280;10614;53.198;6.570;2023-03-26T03:32:06;100521.94;;;6.38;100.00
20909;BME280;10614;53.198;6.570;2023-03-26T03:34:10;100515.84;;;6.38;100.00
20909;BME280;10614;53.198;6.570;2023-03-26T03:36:17;100516.72;;;6.38;100.00
20909;BME280;10614;53.198;6.570;2023-03-26T03:38:23;100501.19;;;6.32;100.00
20909;BME280;10614;53.198;6.570;2023-03-26T03:40:28;100506.41;;;6.32;100.00
20909;BME280;10614;53.198;6.570;2023-03-26T03:42:32;100508.91;;;6.37;100.00
20909;BME280;10614;53.198;6.570;2023-03-26T03:44:37;100507.19;;;6.36;100.00
20909;BME280;10614;53.198;6.570;2023-03-26T03:46:42;100503.72;;;6.35;100.00
20909;BME280;10614;53.198;6.570;2023-03-26T03:48:46;100497.84;;;6.27;100.00
20909;BME280;10614;53.198;6.570;2023-03-26T03:50:50;100491.75;;;6.28;100.00
20909;BME280;10614;53.198;6.570;2023-03-26T03:52:53;100500.28;;;6.34;100.00
20909;BME280;10614;53.198;6.570;2023-03-26T03:54:59;100503.75;;;6.33;100.00
20909;BME280;10614;53.198;6.570;2023-03-26T03:57:03;100509.00;;;6.33;100.00
20909;BME280;10614;53.198;6.570;2023-03-26T03:59:07;100493.56;;;6.24;100.00
20909;BME280;10614;53.198;6.570;2023-03-26T04:01:10;100510.84;;;6.30;100.00
20909;BME280;10614;53.198;6.570;2023-03-26T04:03:16;100497.16;;;6.20;100.00
20909;BME280;10614;53.198;6.570;2023-03-26T04:05:20;100488.59;;;6.15;100.00
20909;BME280;10614;53.198;6.570;2023-03-26T04:07:24;100505.81;;;6.22;100.00
20909;BME280;10614;53.198;6.570;2023-03-26T04:09:28;100489.53;;;6.12;100.00
20909;BME280;10614;53.198;6.570;2023-03-26T04:11:32;100508.53;;;6.19;100.00
20909;BME280;10614;53.198;6.570;2023-03-26T04:13:38;100505.06;;;6.19;100.00
20909;BME280;10614;53.198;6.570;2023-03-26T04:15:43;100500.72;;;6.18;100.00
20909;BME280;10614;53.198;6.570;2023-03-26T04:17:45;100500.78;;;6.16;100.00
20909;BME280;10614;53.198;6.570;2023-03-26T04:19:48;100507.78;;;6.14;100.00
20909;BME280;10614;53.198;6.570;2023-03-26T04:21:52;100496.50;;;6.13;100.00
20909;BME280;10614;53.198;6.570;2023-03-26T04:23:56;100507.78;;;6.14;100.00
20909;BME280;10614;53.198;6.570;2023-03-26T04:26:01;100509.59;;;6.12;100.00
20909;BME280;10614;53.198;6.570;2023-03-26T04:28:08;100509.56;;;6.13;100.00
20909;BME280;10614;53.198;6.570;2023-03-26T04:30:20;100504.34;;;6.13;100.00
20909;BME280;10614;53.198;6.570;2023-03-26T04:32:25;100505.22;;;6.12;100.00
20909;BME280;10614;53.198;6.570;2023-03-26T04:34:34;100500.09;;;6.08;100.00
20909;BME280;10614;53.198;6.570;2023-03-26T04:36:40;100511.28;;;6.13;100.00
20909;BME280;10614;53.198;6.570;2023-03-26T04:38:48;100507.84;;;6.11;100.00
20909;BME280;10614;53.198;6.570;2023-03-26T04:40:57;100510.56;;;6.08;100.00
20909;BME280;10614;53.198;6.570;2023-03-26T04:43:05;100504.44;;;6.09;100.00
20909;BME280;10614;53.198;6.570;2023-03-26T04:45:09;100508.78;;;6.08;100.00
20909;BME280;10614;53.198;6.570;2023-03-26T04:47:13;100506.16;;;6.10;100.00
20909;BME280;10614;53.198;6.570;2023-03-26T04:49:17;100502.69;;;6.09;100.00
20909;BME280;10614;53.198;6.570;2023-03-26T04:51:25;100501.09;;;6.04;100.00
20909;BME280;10614;53.198;6.570;2023-03-26T04:53:37;100510.53;;;6.09;100.00
20909;BME280;10614;53.198;6.570;2023-03-26T04:55:44;100506.25;;;6.07;100.00
20909;BME280;10614;53.198;6.570;2023-03-26T04:57:55;100502.78;;;6.06;100.00
20909;BME280;10614;53.198;6.570;2023-03-26T05:00:00;100503.75;;;6.02;100.00
20909;BME280;10614;53.198;6.570;2023-03-26T05:02:16;100508.06;;;6.03;100.00
20909;BME280;10614;53.198;6.570;2023-03-26T05:04:20;100505.53;;;6.02;100.00
20909;BME280;10614;53.198;6.570;2023-03-26T05:06:25;100498.56;;;6.01;100.00
20909;BME280;10614;53.198;6.570;2023-03-26T05:08:30;100506.41;;;6.01;100.00
20909;BME280;10614;53.198;6.570;2023-03-26T05:10:37;100503.81;;;5.99;100.00
20909;BME280;10614;53.198;6.570;2023-03-26T05:12:42;100502.91;;;6.02;100.00
20909;BME280;10614;53.198;6.570;2023-03-26T05:14:46;100500.28;;;6.02;100.00
20909;BME280;10614;53.198;6.570;2023-03-26T05:16:52;100505.53;;;6.02;100.00
20909;BME280;10614;53.198;6.570;2023-03-26T05:18:56;100501.16;;;6.01;100.00
20909;BME280;10614;53.198;6.570;2023-03-26T05:21:00;100501.19;;;5.99;100.00
20909;BME280;10614;53.198;6.570;2023-03-26T05:23:04;100502.94;;;6.00;100.00
20909;BME280;10614;53.198;6.570;2023-03-26T05:25:09;100488.22;;;5.96;100.00
20909;BME280;10614;53.198;6.570;2023-03-26T05:27:17;100498.53;;;6.02;100.00
20909;BME280;10614;53.198;6.570;2023-03-26T05:29:21;100497.75;;;5.99;100.00
20909;BME280;10614;53.198;6.570;2023-03-26T05:31:29;100494.38;;;5.93;100.00
20909;BME280;10614;53.198;6.570;2023-03-26T05:33:33;100500.50;;;5.92;100.00
20909;BME280;10614;53.198;6.570;2023-03-26T05:35:41;100505.91;;;5.85;100.00
20909;BME280;10614;53.198;6.570;2023-03-26T05:37:45;100500.69;;;5.85;100.00
20909;BME280;10614;53.198;6.570;2023-03-26T05:39:51;100501.56;;;5.85;100.00
20909;BME280;10614;53.198;6.570;2023-03-26T05:41:55;100502.44;;;5.84;100.00
20909;BME280;10614;53.198;6.570;2023-03-26T05:44:01;100491.25;;;5.79;100.00
20909;BME280;10614;53.198;6.570;2023-03-26T05:46:05;100488.75;;;5.76;100.00
20909;BME280;10614;53.198;6.570;2023-03-26T05:48:10;100495.50;;;5.83;100.00
20909;BME280;10614;53.198;6.570;2023-03-26T05:50:13;100485.25;;;5.76;100.00
20909;BME280;10614;53.198;6.570;2023-03-26T05:52:18;100492.09;;;5.81;100.00
20909;BME280;10614;53.198;6.570;2023-03-26T05:54:23;100476.56;;;5.75;100.00
20909;BME280;10614;53.198;6.570;2023-03-26T05:56:29;100489.47;;;5.81;100.00
20909;BME280;10614;53.198;6.570;2023-03-26T05:58:35;100492.91;;;5.83;100.00
20909;BME280;10614;53.198;6.570;2023-03-26T06:00:40;100489.34;;;5.86;100.00
20909;BME280;10614;53.198;6.570;2023-03-26T06:02:49;100479.88;;;5.82;100.00
20909;BME280;10614;53.198;6.570;2023-03-26T06:04:55;100493.59;;;5.90;100.00
20909;BME280;10614;53.198;6.570;2023-03-26T06:06:58;100492.72;;;5.89;100.00
20909;BME280;10614;53.198;6.570;2023-03-26T06:09:03;100481.56;;;5.83;100.00
20909;BME280;10614;53.198;6.570;2023-03-26T06:11:06;100495.34;;;5.89;100.00
20909;BME280;10614;53.198;6.570;2023-03-26T06:13:12;100491.84;;;5.90;100.00
20909;BME280;10614;53.198;6.570;2023-03-26T06:15:17;100493.59;;;5.90;100.00
20909;BME280;10614;53.198;6.570;2023-03-26T06:17:23;100489.22;;;5.90;100.00
20909;BME280;10614;53.198;6.570;2023-03-26T06:19:27;100485.78;;;5.90;100.00
20909;BME280;10614;53.198;6.570;2023-03-26T06:21:31;100473.72;;;5.84;100.00
20909;BME280;10614;53.198;6.570;2023-03-26T06:23:36;100478.69;;;5.93;100.00
20909;BME280;10614;53.198;6.570;2023-03-26T06:25:39;100480.41;;;5.95;100.00
20909;BME280;10614;53.198;6.570;2023-03-26T06:27:47;100478.59;;;5.98;100.00
20909;BME280;10614;53.198;6.570;2023-03-26T06:29:53;100482.88;;;6.01;100.00
20909;BME280;10614;53.198;6.570;2023-03-26T06:31:58;100481.09;;;6.03;100.00
20909;BME280;10614;53.198;6.570;2023-03-26T06:34:04;100462.91;;;6.00;100.00
20909;BME280;10614;53.198;6.570;2023-03-26T06:36:11;100471.38;;;6.08;100.00
20909;BME280;10614;53.198;6.570;2023-03-26T06:38:18;100470.59;;;6.04;100.00
20909;BME280;10614;53.198;6.570;2023-03-26T06:40:26;100480.88;;;6.10;100.00
20909;BME280;10614;53.198;6.570;2023-03-26T06:42:30;100472.31;;;6.05;100.00
20909;BME280;10614;53.198;6.570;2023-03-26T06:44:34;100486.88;;;6.14;100.00
20909;BME280;10614;53.198;6.570;2023-03-26T06:46:37;100478.22;;;6.12;100.00
20909;BME280;10614;53.198;6.570;2023-03-26T06:48:41;100487.75;;;6.15;100.00
20909;BME280;10614;53.198;6.570;2023-03-26T06:50:48;100486.78;;;6.17;100.00
20909;BME280;10614;53.198;6.570;2023-03-26T06:52:54;100492.03;;;6.17;100.00
20909;BME280;10614;53.198;6.570;2023-03-26T06:54:59;100492.94;;;6.16;100.00
20909;BME280;10614;53.198;6.570;2023-03-26T06:57:04;100501.63;;;6.17;100.00
20909;BME280;10614;53.198;6.570;2023-03-26T06:59:09;100491.16;;;6.17;100.00
20909;BME280;10614;53.198;6.570;2023-03-26T07:01:13;100493.78;;;6.17;100.00
20909;BME280;10614;53.198;6.570;2023-03-26T07:03:17;100499.97;;;6.12;100.00
20909;BME280;10614;53.198;6.570;2023-03-26T07:05:21;100499.97;;;6.12;100.00
20909;BME280;10614;53.198;6.570;2023-03-26T07:07:27;100498.28;;;6.11;100.00
20909;BME280;10614;53.198;6.570;2023-03-26T07:09:35;100502.59;;;6.12;100.00
20909;BME280;10614;53.198;6.570;2023-03-26T07:11:40;100493.91;;;6.12;100.00
20909;BME280;10614;53.198;6.570;2023-03-26T07:13:43;100495.59;;;6.13;100.00
20909;BME280;10614;53.198;6.570;2023-03-26T07:15:48;100486.88;;;6.14;100.00
20909;BME280;10614;53.198;6.570;2023-03-26T07:17:52;100491.16;;;6.17;100.00
20909;BME280;10614;53.198;6.570;2023-03-26T07:20:00;100475.63;;;6.12;100.00
20909;BME280;10614;53.198;6.570;2023-03-26T07:22:04;100481.56;;;6.17;100.00
20909;BME280;10614;53.198;6.570;2023-03-26T07:24:11;100476.34;;;6.17;100.00
20909;BME280;10614;53.198;6.570;2023-03-26T07:26:25;100482.13;;;6.28;100.00
20909;BME280;10614;53.198;6.570;2023-03-26T07:28:37;100473.31;;;6.32;100.00
20909;BME280;10614;53.198;6.570;2023-03-26T07:30:55;100486.28;;;6.36;100.00
20909;BME280;10614;53.198;6.570;2023-03-26T07:33:07;100472.50;;;6.30;100.00
20909;BME280;10614;53.198;6.570;2023-03-26T07:35:19;100481.03;;;6.37;100.00
20909;BME280;10614;53.198;6.570;2023-03-26T07:37:34;100483.56;;;6.39;100.00
20909;BME280;10614;53.198;6.570;2023-03-26T07:39:52;100470.69;;;6.32;100.00
20909;BME280;10614;53.198;6.570;2023-03-26T07:42:04;100488.75;;;6.42;100.00
20909;BME280;10614;53.198;6.570;2023-03-26T07:44:26;100473.22;;;6.36;100.00
20909;BME280;10614;53.198;6.570;2023-03-26T07:46:35;100478.44;;;6.36;100.00
20909;BME280;10614;53.198;6.570;2023-03-26T07:48:42;100464.44;;;6.38;100.00
20909;BME280;10614;53.198;6.570;2023-03-26T07:50:50;100474.63;;;6.47;100.00
20909;BME280;10614;53.198;6.570;2023-03-26T07:52:54;100457.25;;;6.45;100.00
20909;BME280;10614;53.198;6.570;2023-03-26T07:55:00;100472.50;;;6.60;100.00
20909;BME280;10614;53.198;6.570;2023-03-26T07:57:06;100471.56;;;6.63;100.00
20909;BME280;10614;53.198;6.570;2023-03-26T07:59:27;100471.50;;;6.64;100.00
20909;BME280;10614;53.198;6.570;2023-03-26T08:01:43;100473.31;;;6.62;100.00
20909;BME280;10614;53.198;6.570;2023-03-26T08:04:08;100470.88;;;6.56;100.00
20909;BME280;10614;53.198;6.570;2023-03-26T08:06:18;100477.78;;;6.59;100.00
20909;BME280;10614;53.198;6.570;2023-03-26T08:08:30;100483.88;;;6.59;100.00
20909;BME280;10614;53.198;6.570;2023-03-26T08:10:48;100473.22;;;6.65;100.00
20909;BME280;10614;53.198;6.570;2023-03-26T08:13:05;100466.97;;;6.69;100.00
20909;BME280;10614;53.198;6.570;2023-03-26T08:15:17;100464.19;;;6.75;100.00
20909;BME280;10614;53.198;6.570;2023-03-26T08:17:32;100465.03;;;6.76;99.15
20909;BME280;10614;53.198;6.570;2023-03-26T08:19:51;100460.59;;;6.80;100.00
20909;BME280;10614;53.198;6.570;2023-03-26T08:22:03;100464.84;;;6.84;100.00
20909;BME280;10614;53.198;6.570;2023-03-26T08:24:21;100465.53;;;6.89;100.00
20909;BME280;10614;53.198;6.570;2023-03-26T08:26:34;100469.69;;;6.96;99.87
20909;BME280;10614;53.198;6.570;2023-03-26T08:28:55;100482.47;;;7.05;99.67
20909;BME280;10614;53.198;6.570;2023-03-26T08:31:04;100477.28;;;7.04;99.70
20909;BME280;10614;53.198;6.570;2023-03-26T08:33:12;100488.53;;;7.07;98.59
20909;BME280;10614;53.198;6.570;2023-03-26T08:35:20;100487.72;;;7.05;97.71
20909;BME280;10614;53.198;6.570;2023-03-26T08:37:23;100482.34;;;7.10;97.58
20909;BME280;10614;53.198;6.570;2023-03-26T08:39:34;100474.63;;;7.05;97.57
20909;BME280;10614;53.198;6.570;2023-03-26T08:42:13;100484.84;;;7.13;96.80
20909;BME280;10614;53.198;6.570;2023-03-26T08:45:02;100491.72;;;7.17;96.93
20909;BME280;10614;53.198;6.570;2023-03-26T08:50:35;100491.94;;;7.09;94.53
20909;BME280;10614;53.198;6.570;2023-03-26T08:53:14;100491.94;;;7.09;91.75
20909;BME280;10614;53.198;6.570;2023-03-26T08:55:40;100488.31;;;7.13;92.55
20909;BME280;10614;53.198;6.570;2023-03-26T08:57:59;100484.88;;;7.11;90.73
20909;BME280;10614;53.198;6.570;2023-03-26T09:00:39;100482.47;;;7.05;90.79
20909;BME280;10614;53.198;6.570;2023-03-26T09:05:51;100488.88;;;7.23;91.36
20909;BME280;10614;53.198;6.570;2023-03-26T09:08:23;100483.31;;;7.34;91.70
20909;BME280;10614;53.198;6.570;2023-03-26T09:10:53;100490.06;;;7.41;91.83
20909;BME280;10614;53.198;6.570;2023-03-26T09:13:39;100469.13;;;7.41;91.53
20909;BME280;10614;53.198;6.570;2023-03-26T09:16:11;100495.00;;;7.50;88.50
20909;BME280;10614;53.198;6.570;2023-03-26T09:21:30;100488.00;;;7.51;84.99
20909;BME280;10614;53.198;6.570;2023-03-26T09:23:58;100496.63;;;7.54;84.88
20909;BME280;10614;53.198;6.570;2023-03-26T09:26:25;100494.03;;;7.53;84.10
20909;BME280;10614;53.198;6.570;2023-03-26T09:34:27;100502.16;;;7.45;83.49
20909;BME280;10614;53.198;6.570;2023-03-26T09:36:52;100501.47;;;7.40;82.83
20909;BME280;10614;53.198;6.570;2023-03-26T09:38:57;100498.84;;;7.40;82.18
20909;BME280;10614;53.198;6.570;2023-03-26T09:41:09;100501.50;;;7.38;81.78
20909;BME280;10614;53.198;6.570;2023-03-26T09:43:37;100501.34;;;7.43;82.52
20909;BME280;10614;53.198;6.570;2023-03-26T09:45:51;100502.03;;;7.48;83.06
20909;BME280;10614;53.198;6.570;2023-03-26T09:48:14;100502.66;;;7.56;83.12
20909;BME280;10614;53.198;6.570;2023-03-26T09:50:29;100500.03;;;7.56;83.24
20909;BME280;10614;53.198;6.570;2023-03-26T09:52:48;100511.00;;;7.68;83.44
20909;BME280;10614;53.198;6.570;2023-03-26T09:55:22;100512.56;;;7.73;83.72
20909;BME280;10614;53.198;6.570;2023-03-26T09:57:44;100512.50;;;7.75;83.56
20909;BME280;10614;53.198;6.570;2023-03-26T10:00:00;100520.38;;;7.75;82.99
20909;BME280;10614;53.198;6.570;2023-03-26T10:02:24;100518.66;;;7.74;82.84
20909;BME280;10614;53.198;6.570;2023-03-26T10:04:44;100518.78;;;7.71;82.67
20909;BME280;10614;53.198;6.570;2023-03-26T10:06:59;100516.25;;;7.68;81.76
20909;BME280;10614;53.198;6.570;2023-03-26T10:09:16;100520.88;;;7.59;81.91
20909;BME280;10614;53.198;6.570;2023-03-26T10:11:28;100519.16;;;7.58;81.56
20909;BME280;10614;53.198;6.570;2023-03-26T10:13:40;100522.69;;;7.57;81.92
20909;BME280;10614;53.198;6.570;2023-03-26T10:15:58;100519.28;;;7.55;80.14
20909;BME280;10614;53.198;6.570;2023-03-26T10:18:12;100530.38;;;7.64;80.80
20909;BME280;10614;53.198;6.570;2023-03-26T10:20:44;100528.63;;;7.63;79.14
20909;BME280;10614;53.198;6.570;2023-03-26T10:22:59;100528.56;;;7.66;79.39
20909;BME280;10614;53.198;6.570;2023-03-26T10:25:27;100529.25;;;7.71;80.45
20909;BME280;10614;53.198;6.570;2023-03-26T10:27:41;100525.72;;;7.72;79.50
20909;BME280;10614;53.198;6.570;2023-03-26T10:30:06;100527.53;;;7.70;79.10
20909;BME280;10614;53.198;6.570;2023-03-26T10:32:22;100528.56;;;7.66;78.67
20909;BME280;10614;53.198;6.570;2023-03-26T10:34:47;100518.09;;;7.66;79.35
20909;BME280;10614;53.198;6.570;2023-03-26T10:36:54;100525.59;;;7.75;79.38
20909;BME280;10614;53.198;6.570;2023-03-26T10:39:14;100531.72;;;7.75;78.74
20909;BME280;10614;53.198;6.570;2023-03-26T10:41:29;100532.56;;;7.76;78.25
20909;BME280;10614;53.198;6.570;2023-03-26T10:43:47;100535.09;;;7.79;77.80
20909;BME280;10614;53.198;6.570;2023-03-26T10:46:19;100529.91;;;7.77;76.56
20909;BME280;10614;53.198;6.570;2023-03-26T10:48:37;100533.44;;;7.76;76.56
20909;BME280;10614;53.198;6.570;2023-03-26T10:51:01;100537.97;;;7.71;76.35
20909;BME280;10614;53.198;6.570;2023-03-26T10:53:10;100516.31;;;7.66;76.48
20909;BME280;10614;53.198;6.570;2023-03-26T10:55:20;100530.97;;;7.72;74.70
20909;BME280;10614;53.198;6.570;2023-03-26T10:57:34;100532.56;;;7.76;75.86
20909;BME280;10614;53.198;6.570;2023-03-26T10:59:44;100541.91;;;7.85;75.83
20909;BME280;10614;53.198;6.570;2023-03-26T11:01:52;100543.41;;;7.92;76.43
20909;BME280;10614;53.198;6.570;2023-03-26T11:04:05;100545.75;;;7.99;76.48
20909;BME280;10614;53.198;6.570;2023-03-26T11:06:28;100540.38;;;8.04;76.16
20909;BME280;10614;53.198;6.570;2023-03-26T11:08:47;100549.78;;;8.10;76.38
20909;BME280;10614;53.198;6.570;2023-03-26T11:10:58;100551.34;;;8.15;76.68
20909;BME280;10614;53.198;6.570;2023-03-26T11:13:12;100540.09;;;8.12;73.48
20909;BME280;10614;53.198;6.570;2023-03-26T11:15:21;100537.63;;;8.07;73.26
20909;BME280;10614;53.198;6.570;2023-03-26T11:17:35;100548.56;;;8.20;73.62
20909;BME280;10614;53.198;6.570;2023-03-26T11:19:43;100551.75;;;8.28;74.56
20909;BME280;10614;53.198;6.570;2023-03-26T11:21:55;100557.00;;;8.28;73.88
20909;BME280;10614;53.198;6.570;2023-03-26T11:24:24;100552.00;;;8.22;71.33
20909;BME280;10614;53.198;6.570;2023-03-26T11:26:40;100555.66;;;8.16;71.47
20909;BME280;10614;53.198;6.570;2023-03-26T11:29:13;100555.81;;;8.12;71.53
20909;BME280;10614;53.198;6.570;2023-03-26T11:31:24;100548.88;;;8.11;72.04
20909;BME280;10614;53.198;6.570;2023-03-26T11:33:33;100555.66;;;8.16;72.16
20909;BME280;10614;53.198;6.570;2023-03-26T11:35:39;100557.44;;;8.16;71.54
20909;BME280;10614;53.198;6.570;2023-03-26T11:37:47;100566.22;;;8.15;71.46
20909;BME280;10614;53.198;6.570;2023-03-26T11:39:55;100559.94;;;8.19;72.25
20909;BME280;10614;53.198;6.570;2023-03-26T11:42:06;100572.34;;;8.14;69.66
20909;BME280;10614;53.198;6.570;2023-03-26T11:44:19;100563.91;;;8.06;69.80
20909;BME280;10614;53.198;6.570;2023-03-26T11:46:24;100562.88;;;8.10;70.51
20909;BME280;10614;53.198;6.570;2023-03-26T11:48:30;100573.13;;;8.17;70.77
20909;BME280;10614;53.198;6.570;2023-03-26T11:50:40;100571.19;;;8.22;70.65
20909;BME280;10614;53.198;6.570;2023-03-26T11:52:46;100576.19;;;8.29;71.05
20909;BME280;10614;53.198;6.570;2023-03-26T11:54:50;100569.88;;;8.36;71.36
20909;BME280;10614;53.198;6.570;2023-03-26T11:56:53;100566.38;;;8.35;69.01
20909;BME280;10614;53.198;6.570;2023-03-26T11:59:02;100570.63;;;8.38;69.37
20909;BME280;10614;53.198;6.570;2023-03-26T12:01:12;100573.53;;;8.30;66.28
20909;BME280;10614;53.198;6.570;2023-03-26T12:03:16;100570.06;;;8.30;66.94
20909;BME280;10614;53.198;6.570;2023-03-26T12:05:22;100575.50;;;8.23;65.42
20909;BME280;10614;53.198;6.570;2023-03-26T12:07:29;100577.16;;;8.26;66.44
20909;BME280;10614;53.198;6.570;2023-03-26T12:09:31;100571.13;;;8.24;67.63
20909;BME280;10614;53.198;6.570;2023-03-26T12:11:34;100549.53;;;8.17;68.05
20909;BME280;10614;53.198;6.570;2023-03-26T12:13:40;100571.34;;;8.18;67.60
20909;BME280;10614;53.198;6.570;2023-03-26T12:15:46;100579.94;;;8.21;67.74
20909;BME280;10614;53.198;6.570;2023-03-26T12:17:49;100584.50;;;8.16;66.18
20909;BME280;10614;53.198;6.570;2023-03-26T12:19:53;100580.25;;;8.12;66.49
20909;BME280;10614;53.198;6.570;2023-03-26T12:21:56;100587.81;;;8.21;66.64
20909;BME280;10614;53.198;6.570;2023-03-26T12:23:58;100588.63;;;8.23;65.86
20909;BME280;10614;53.198;6.570;2023-03-26T12:26:10;100593.78;;;8.27;64.92
20909;BME280;10614;53.198;6.570;2023-03-26T12:28:18;100588.63;;;8.23;63.89
20909;BME280;10614;53.198;6.570;2023-03-26T12:30:22;100592.09;;;8.24;62.70
20909;BME280;10614;53.198;6.570;2023-03-26T12:32:30;100601.56;;;8.28;64.32
20909;BME280;10614;53.198;6.570;2023-03-26T12:34:36;100589.88;;;8.38;64.44
20909;BME280;10614;53.198;6.570;2023-03-26T12:36:38;100594.03;;;8.45;64.63
20909;BME280;10614;53.198;6.570;2023-03-26T12:38:42;100590.66;;;8.42;61.89
20909;BME280;10614;53.198;6.570;2023-03-26T12:40:47;100593.31;;;8.40;61.37
20909;BME280;10614;53.198;6.570;2023-03-26T12:42:52;100602.63;;;8.49;62.75
20909;BME280;10614;53.198;6.570;2023-03-26T12:44:57;100602.84;;;8.68;63.60
20909;BME280;10614;53.198;6.570;2023-03-26T12:47:10;100596.88;;;8.88;63.83
20909;BME280;10614;53.198;6.570;2023-03-26T12:49:17;100592.69;;;9.06;63.16
20909;BME280;10614;53.198;6.570;2023-03-26T12:51:35;100602.56;;;9.23;62.75
20909;BME280;10614;53.198;6.570;2023-03-26T12:53:52;100600.19;;;9.39;63.41
20909;BME280;10614;53.198;6.570;2023-03-26T12:56:00;100595.44;;;9.48;62.51
20909;BME280;10614;53.198;6.570;2023-03-26T12:58:43;100594.22;;;9.57;63.87
20909;BME280;10614;53.198;6.570;2023-03-26T13:00:58;100604.84;;;9.54;60.54
20909;BME280;10614;53.198;6.570;2023-03-26T13:03:21;100616.47;;;9.48;60.48
20909;BME280;10614;53.198;6.570;2023-03-26T13:05:40;100609.84;;;9.38;59.44
20909;BME280;10614;53.198;6.570;2023-03-26T13:07:53;100606.84;;;9.25;58.44
20909;BME280;10614;53.198;6.570;2023-03-26T13:10:33;100616.16;;;9.34;60.26
20909;BME280;10614;53.198;6.570;2023-03-26T13:12:49;100611.00;;;9.31;59.01
20909;BME280;10614;53.198;6.570;2023-03-26T13:15:15;100592.25;;;9.18;58.23
20909;BME280;10614;53.198;6.570;2023-03-26T13:17:25;100610.28;;;9.04;60.30
20909;BME280;10614;53.198;6.570;2023-03-26T13:19:36;100607.72;;;9.02;60.45
20909;BME280;10614;53.198;6.570;2023-03-26T13:21:52;100623.63;;;8.98;62.31
20909;BME280;10614;53.198;6.570;2023-03-26T13:24:06;100623.84;;;8.92;63.30
20909;BME280;10614;53.198;6.570;2023-03-26T13:26:17;100621.72;;;8.78;62.60
20909;BME280;10614;53.198;6.570;2023-03-26T13:28:32;100614.28;;;8.65;62.70
20909;BME280;10614;53.198;6.570;2023-03-26T13:30:44;100611.84;;;8.61;63.30
20909;BME280;10614;53.198;6.570;2023-03-26T13:33:19;100624.78;;;8.65;63.44
20909;BME280;10614;53.198;6.570;2023-03-26T13:35:28;100622.16;;;8.65;63.14
20909;BME280;10614;53.198;6.570;2023-03-26T13:37:52;100610.78;;;8.66;63.88
20909;BME280;10614;53.198;6.570;2023-03-26T13:40:02;100627.50;;;8.64;62.96
20909;BME280;10614;53.198;6.570;2023-03-26T13:42:26;100631.81;;;8.65;62.82
20909;BME280;10614;53.198;6.570;2023-03-26T13:44:51;100629.06;;;8.68;63.15
20909;BME280;10614;53.198;6.570;2023-03-26T13:47:05;100643.66;;;8.77;63.38
20909;BME280;10614;53.198;6.570;2023-03-26T13:49:11;100637.63;;;8.73;59.97
20909;BME280;10614;53.198;6.570;2023-03-26T13:51:22;100635.94;;;8.72;59.20
20909;BME280;10614;53.198;6.570;2023-03-26T13:53:40;100635.38;;;8.64;57.88
20909;BME280;10614;53.198;6.570;2023-03-26T13:55:47;100642.19;;;8.68;58.50
20909;BME280;10614;53.198;6.570;2023-03-26T13:57:57;100639.84;;;8.85;58.25
20909;BME280;10614;53.198;6.570;2023-03-26T14:00:05;100633.63;;;9.12;59.40
20909;BME280;10614;53.198;6.570;2023-03-26T14:02:21;100632.81;;;9.33;59.40
20909;BME280;10614;53.198;6.570;2023-03-26T14:04:27;100639.06;;;9.52;58.98
20909;BME280;10614;53.198;6.570;2023-03-26T14:06:39;100639.88;;;9.55;56.00
20909;BME280;10614;53.198;6.570;2023-03-26T14:08:46;100650.69;;;9.47;55.81
20909;BME280;10614;53.198;6.570;2023-03-26T14:10:54;100649.25;;;9.38;56.23
20909;BME280;10614;53.198;6.570;2023-03-26T14:13:04;100650.19;;;9.37;56.50
20909;BME280;10614;53.198;6.570;2023-03-26T14:15:15;100647.84;;;9.29;56.82
20909;BME280;10614;53.198;6.570;2023-03-26T14:17:23;100655.16;;;9.21;57.60
20909;BME280;10614;53.198;6.570;2023-03-26T14:19:45;100649.91;;;9.21;58.66
20909;BME280;10614;53.198;6.570;2023-03-26T14:22:02;100651.84;;;9.16;56.63
20909;BME280;10614;53.198;6.570;2023-03-26T14:24:33;100652.00;;;9.12;55.82
20909;BME280;10614;53.198;6.570;2023-03-26T14:27:02;100647.44;;;9.17;56.44